Spring Green, Wisconsin
Current Conditions -  °F | °C
As of 10:56 PM on Wednesday 22 Oct 2014 (Local Time) from KLNR Reporting Station
Clear Clear  
Wind Chill: 39°   Ceiling: Unl
Heat Index: 43°   Visibility: 10mi
Dew Point: 34°   Wind: 6mph
Humidity: 71%   Direction: 90°E
Pressure: 30.21"   Gusts: NA
Location:  43.18°N, 90.07°W
Report Text: KLNR 230356Z AUTO 09005KT 10SM CLR 06/01 A3021 RMK AO2 SLP228 T00610011
Loading
Personal Weather Stations






























Interactive Weather Map
Tropical Storm Tracking
New forecast layout! Learn more

10-Day Weather Forecast

Advertisements
Track Severe Weather on mobile